Lexington, KY (40517)

1:30 PM EDT on October 01, 2016 (GMT -0400)
Wilson Downing Rd | | Change Station

Elev 935 ft 37.98 °N, 84.50 °W | Updated 3 seconds ago

Overcast
Overcast
61.9 °F
Feels Like 61.9 °F
N
0.0
Wind Variable Wind from North

Today
High -- | Low -- °F
--% Chance of Precip.
Yesterday
High -- | Low -- °F
Precip. -- in
Pressure 30.06 in
Visibility 10.0 miles
Clouds Overcast 900 ft
Dew Point 58 °F
Humidity 88%
Rainfall Not available.
Snow Depth Not available.
7:34 AM 7:20 PM
New Moon, 0% visible
METAR KLEX 011654Z 19008KT 10SM OVC009 17/13 A3007 RMK AO2 SLP180 T01670128
Pressure 30.06 in
Visibility 10.0 miles
Clouds Overcast 900 ft
Dew Point 58 °F
Humidity 88%
Rainfall Not available.
Snow Depth Not available.
7:34 AM 7:20 PM
New Moon, 0% visible
METAR KLEX 011654Z 19008KT 10SM OVC009 17/13 A3007 RMK AO2 SLP180 T01670128

10-Day Weather Forecast

Almanac

Astronomy

Oct. 01, 2016 Rise Set
Actual Time
Civil Twilight
Nautical Twilight
Astronomical Twilight
Moon
Length of Visible Light
Length of Day
Tomorrow will be .
, % of the Moon is Illuminated

Today's Extremes

State Highs State Lows

Community

WunderPhotos

Upload Photos

1,942,963 photos uploaded!

WunderBlog® & News

Nearby

Air Quality

  Air Quality AQ Index Pollutant
Not available.

Snow Depth

Station Depth Elevation

Earthquake Activity

City Distance Mag. Time & Date
Minimum magnitude displayed is 2.5.

Coastal Water Temperatures

Place Temperature

Stations

Nearby Weather Stations

Station Location Temp. Windchill Dew Point Humidity Wind Precip. Elev Updated Type
                   

Watches & Warnings

There are currently no watches in effect.